Terminal Aerodrome Forecast
Issued by NWS

Home | Current Version | Previous Version | Text Only | Print | Product List | Glossary On
Versions: 1 2 3 4 5 6 7 8 9 10 11 12 13 14 15 16
000
FTUS44 KLZK 220600 AAA
TAFLIT
TAF AMD
KLIT 220609Z 2206/2306 00000KT 3SM BR MIFG FEW050 BKN070 BKN100
      TEMPO 2209/2213 1SM -DZ BR BKN001
     FM221500 16007KT P6SM VCSH SCT010 BKN025 WS020/18035KT
     FM221800 17010KT P6SM VCSH SCT025 BKN040 WS020/18035KT=

USA.gov is the U.S. government's official web portal to all federal, state and local government web resources and services.